sensor_id;sensor_type;location;lat;lon;timestamp;P1;durP1;ratioP1;P2;durP2;ratioP2
70138;SDS011;57507;43.056;0.150;2022-09-12T00:02:25;0.95;;;0.50;;
70138;SDS011;57507;43.056;0.150;2022-09-12T00:04:51;0.90;;;0.50;;
70138;SDS011;57507;43.056;0.150;2022-09-12T00:07:17;1.20;;;0.40;;
70138;SDS011;57507;43.056;0.150;2022-09-12T00:09:43;0.52;;;0.43;;
70138;SDS011;57507;43.056;0.150;2022-09-12T00:12:09;2.30;;;0.57;;
70138;SDS011;57507;43.056;0.150;2022-09-12T00:14:35;1.98;;;0.40;;
70138;SDS011;57507;43.056;0.150;2022-09-12T00:17:01;0.40;;;0.40;;
70138;SDS011;57507;43.056;0.150;2022-09-12T00:19:28;1.02;;;0.50;;
70138;SDS011;57507;43.056;0.150;2022-09-12T00:21:54;0.40;;;0.40;;
70138;SDS011;57507;43.056;0.150;2022-09-12T00:24:21;1.05;;;0.47;;
70138;SDS011;57507;43.056;0.150;2022-09-12T00:26:47;1.58;;;0.35;;
70138;SDS011;57507;43.056;0.150;2022-09-12T00:29:17;0.30;;;0.30;;
70138;SDS011;57507;43.056;0.150;2022-09-12T00:31:44;0.68;;;0.40;;
70138;SDS011;57507;43.056;0.150;2022-09-12T00:34:10;2.97;;;0.52;;
70138;SDS011;57507;43.056;0.150;2022-09-12T00:36:37;0.63;;;0.47;;
70138;SDS011;57507;43.056;0.150;2022-09-12T00:39:03;1.00;;;0.60;;
70138;SDS011;57507;43.056;0.150;2022-09-12T00:41:30;4.05;;;0.70;;
70138;SDS011;57507;43.056;0.150;2022-09-12T00:43:58;0.80;;;0.40;;
70138;SDS011;57507;43.056;0.150;2022-09-12T00:51:53;1.60;;;0.68;;
70138;SDS011;57507;43.056;0.150;2022-09-12T00:54:21;0.82;;;0.40;;
70138;SDS011;57507;43.056;0.150;2022-09-12T00:56:48;0.82;;;0.40;;
70138;SDS011;57507;43.056;0.150;2022-09-12T00:59:16;2.33;;;0.68;;
70138;SDS011;57507;43.056;0.150;2022-09-12T01:01:43;1.52;;;0.40;;
70138;SDS011;57507;43.056;0.150;2022-09-12T01:04:10;0.75;;;0.75;;
70138;SDS011;57507;43.056;0.150;2022-09-12T01:06:40;2.40;;;0.95;;
70138;SDS011;57507;43.056;0.150;2022-09-12T01:09:08;1.30;;;0.38;;
70138;SDS011;57507;43.056;0.150;2022-09-12T01:11:35;0.82;;;0.45;;
70138;SDS011;57507;43.056;0.150;2022-09-12T01:14:01;1.52;;;0.68;;
70138;SDS011;57507;43.056;0.150;2022-09-12T01:16:27;0.70;;;0.30;;
70138;SDS011;57507;43.056;0.150;2022-09-12T01:24:10;1.90;;;0.70;;
70138;SDS011;57507;43.056;0.150;2022-09-12T01:26:45;2.67;;;0.60;;
70138;SDS011;57507;43.056;0.150;2022-09-12T01:31:50;3.10;;;0.60;;
70138;SDS011;57507;43.056;0.150;2022-09-12T01:42:03;3.20;;;0.55;;
70138;SDS011;57507;43.056;0.150;2022-09-12T01:49:34;3.42;;;0.55;;
70138;SDS011;57507;43.056;0.150;2022-09-12T01:54:36;1.40;;;0.60;;
70138;SDS011;57507;43.056;0.150;2022-09-12T01:57:06;3.50;;;0.55;;
70138;SDS011;57507;43.056;0.150;2022-09-12T01:59:34;1.58;;;0.60;;
70138;SDS011;57507;43.056;0.150;2022-09-12T02:04:40;1.98;;;0.50;;
70138;SDS011;57507;43.056;0.150;2022-09-12T02:07:12;2.38;;;0.63;;
70138;SDS011;57507;43.056;0.150;2022-09-12T02:10:27;1.70;;;0.50;;
70138;SDS011;57507;43.056;0.150;2022-09-12T02:12:28;2.60;;;0.60;;
70138;SDS011;57507;43.056;0.150;2022-09-12T02:14:58;4.45;;;0.50;;
70138;SDS011;57507;43.056;0.150;2022-09-12T02:17:25;2.38;;;0.60;;
70138;SDS011;57507;43.056;0.150;2022-09-12T02:19:56;1.55;;;0.45;;
70138;SDS011;57507;43.056;0.150;2022-09-12T02:22:24;4.30;;;0.60;;
70138;SDS011;57507;43.056;0.150;2022-09-12T02:24:51;2.20;;;0.55;;
70138;SDS011;57507;43.056;0.150;2022-09-12T02:29:47;2.17;;;0.70;;
70138;SDS011;57507;43.056;0.150;2022-09-12T02:32:16;1.35;;;0.55;;
70138;SDS011;57507;43.056;0.150;2022-09-12T02:35:21;1.10;;;0.40;;
70138;SDS011;57507;43.056;0.150;2022-09-12T02:37:56;2.97;;;0.60;;
70138;SDS011;57507;43.056;0.150;2022-09-12T02:40:24;1.48;;;0.63;;
70138;SDS011;57507;43.056;0.150;2022-09-12T02:42:50;0.73;;;0.50;;
70138;SDS011;57507;43.056;0.150;2022-09-12T02:45:17;2.03;;;0.68;;
70138;SDS011;57507;43.056;0.150;2022-09-12T02:47:45;1.92;;;0.50;;
70138;SDS011;57507;43.056;0.150;2022-09-12T02:50:12;1.75;;;0.47;;
70138;SDS011;57507;43.056;0.150;2022-09-12T02:52:38;2.05;;;0.52;;
70138;SDS011;57507;43.056;0.150;2022-09-12T02:55:05;3.20;;;0.70;;
70138;SDS011;57507;43.056;0.150;2022-09-12T02:57:31;2.05;;;0.60;;
70138;SDS011;57507;43.056;0.150;2022-09-12T02:59:58;2.13;;;0.60;;
70138;SDS011;57507;43.056;0.150;2022-09-12T03:02:31;4.78;;;0.60;;
70138;SDS011;57507;43.056;0.150;2022-09-12T03:11:06;3.83;;;0.60;;
70138;SDS011;57507;43.056;0.150;2022-09-12T03:18:31;3.90;;;0.60;;
70138;SDS011;57507;43.056;0.150;2022-09-12T03:21:05;1.02;;;0.60;;
70138;SDS011;57507;43.056;0.150;2022-09-12T03:26:05;2.78;;;0.50;;
70138;SDS011;57507;43.056;0.150;2022-09-12T03:28:33;3.50;;;0.60;;
70138;SDS011;57507;43.056;0.150;2022-09-12T03:31:11;1.25;;;0.47;;
70138;SDS011;57507;43.056;0.150;2022-09-12T03:33:38;5.10;;;0.77;;
70138;SDS011;57507;43.056;0.150;2022-09-12T03:36:04;0.75;;;0.43;;
70138;SDS011;57507;43.056;0.150;2022-09-12T03:38:30;2.65;;;0.70;;
70138;SDS011;57507;43.056;0.150;2022-09-12T03:40:56;1.45;;;0.50;;
70138;SDS011;57507;43.056;0.150;2022-09-12T03:43:22;1.67;;;0.52;;
70138;SDS011;57507;43.056;0.150;2022-09-12T03:45:51;2.15;;;0.65;;
70138;SDS011;57507;43.056;0.150;2022-09-12T03:48:17;1.88;;;0.52;;
70138;SDS011;57507;43.056;0.150;2022-09-12T03:50:43;2.35;;;1.00;;
70138;SDS011;57507;43.056;0.150;2022-09-12T03:53:09;3.53;;;0.60;;
70138;SDS011;57507;43.056;0.150;2022-09-12T03:55:37;1.10;;;0.50;;
70138;SDS011;57507;43.056;0.150;2022-09-12T03:58:03;5.18;;;0.70;;
70138;SDS011;57507;43.056;0.150;2022-09-12T04:00:30;4.78;;;0.77;;
70138;SDS011;57507;43.056;0.150;2022-09-12T04:02:56;1.65;;;0.60;;
70138;SDS011;57507;43.056;0.150;2022-09-12T04:05:22;1.58;;;0.70;;
70138;SDS011;57507;43.056;0.150;2022-09-12T04:07:48;5.72;;;0.65;;
70138;SDS011;57507;43.056;0.150;2022-09-12T04:10:14;1.27;;;0.50;;
70138;SDS011;57507;43.056;0.150;2022-09-12T04:12:41;1.52;;;0.40;;
70138;SDS011;57507;43.056;0.150;2022-09-12T04:15:07;3.30;;;0.70;;
70138;SDS011;57507;43.056;0.150;2022-09-12T04:17:33;1.70;;;0.60;;
70138;SDS011;57507;43.056;0.150;2022-09-12T04:19:59;2.67;;;0.50;;
70138;SDS011;57507;43.056;0.150;2022-09-12T04:22:25;1.05;;;0.40;;
70138;SDS011;57507;43.056;0.150;2022-09-12T04:24:51;4.72;;;1.35;;
70138;SDS011;57507;43.056;0.150;2022-09-12T04:27:17;4.63;;;0.90;;
70138;SDS011;57507;43.056;0.150;2022-09-12T04:29:43;1.85;;;0.60;;
70138;SDS011;57507;43.056;0.150;2022-09-12T04:32:09;3.20;;;0.73;;
70138;SDS011;57507;43.056;0.150;2022-09-12T04:34:36;2.63;;;0.75;;
70138;SDS011;57507;43.056;0.150;2022-09-12T04:37:02;1.23;;;0.50;;
70138;SDS011;57507;43.056;0.150;2022-09-12T04:39:28;1.92;;;0.52;;
70138;SDS011;57507;43.056;0.150;2022-09-12T04:41:54;3.75;;;0.70;;
70138;SDS011;57507;43.056;0.150;2022-09-12T04:44:20;6.72;;;1.10;;
70138;SDS011;57507;43.056;0.150;2022-09-12T04:46:46;2.65;;;0.50;;
70138;SDS011;57507;43.056;0.150;2022-09-12T04:49:13;3.05;;;0.50;;
70138;SDS011;57507;43.056;0.150;2022-09-12T04:51:40;2.70;;;0.70;;
70138;SDS011;57507;43.056;0.150;2022-09-12T04:54:10;2.05;;;0.63;;
70138;SDS011;57507;43.056;0.150;2022-09-12T04:56:37;2.38;;;0.85;;
70138;SDS011;57507;43.056;0.150;2022-09-12T04:59:04;2.28;;;0.80;;
70138;SDS011;57507;43.056;0.150;2022-09-12T05:01:30;1.80;;;0.63;;
70138;SDS011;57507;43.056;0.150;2022-09-12T05:03:56;4.82;;;0.75;;
70138;SDS011;57507;43.056;0.150;2022-09-12T05:06:24;2.60;;;0.70;;
70138;SDS011;57507;43.056;0.150;2022-09-12T05:08:51;2.50;;;0.77;;
70138;SDS011;57507;43.056;0.150;2022-09-12T05:11:24;5.60;;;0.73;;
70138;SDS011;57507;43.056;0.150;2022-09-12T05:13:51;2.83;;;0.77;;
70138;SDS011;57507;43.056;0.150;2022-09-12T05:16:17;4.68;;;1.00;;
70138;SDS011;57507;43.056;0.150;2022-09-12T05:18:44;5.03;;;1.08;;
70138;SDS011;57507;43.056;0.150;2022-09-12T05:21:11;2.83;;;0.80;;
70138;SDS011;57507;43.056;0.150;2022-09-12T05:23:38;3.35;;;0.65;;
70138;SDS011;57507;43.056;0.150;2022-09-12T05:26:05;3.42;;;0.82;;
70138;SDS011;57507;43.056;0.150;2022-09-12T05:28:33;2.20;;;0.85;;
70138;SDS011;57507;43.056;0.150;2022-09-12T05:31:06;4.22;;;0.90;;
70138;SDS011;57507;43.056;0.150;2022-09-12T05:33:33;5.68;;;0.70;;
70138;SDS011;57507;43.056;0.150;2022-09-12T05:36:00;4.18;;;1.00;;
70138;SDS011;57507;43.056;0.150;2022-09-12T05:38:26;5.75;;;0.82;;
70138;SDS011;57507;43.056;0.150;2022-09-12T05:40:53;4.20;;;0.80;;
70138;SDS011;57507;43.056;0.150;2022-09-12T05:43:19;4.60;;;0.77;;
70138;SDS011;57507;43.056;0.150;2022-09-12T05:45:45;2.58;;;0.80;;
70138;SDS011;57507;43.056;0.150;2022-09-12T05:48:11;3.25;;;0.45;;
70138;SDS011;57507;43.056;0.150;2022-09-12T05:50:37;2.13;;;0.50;;
70138;SDS011;57507;43.056;0.150;2022-09-12T05:53:03;3.75;;;1.10;;
70138;SDS011;57507;43.056;0.150;2022-09-12T05:55:29;4.03;;;0.70;;
70138;SDS011;57507;43.056;0.150;2022-09-12T05:57:57;3.00;;;0.70;;
70138;SDS011;57507;43.056;0.150;2022-09-12T06:00:23;2.40;;;0.90;;
70138;SDS011;57507;43.056;0.150;2022-09-12T06:02:52;3.67;;;0.85;;
70138;SDS011;57507;43.056;0.150;2022-09-12T06:05:18;4.20;;;0.80;;
70138;SDS011;57507;43.056;0.150;2022-09-12T06:07:45;2.58;;;0.63;;
70138;SDS011;57507;43.056;0.150;2022-09-12T06:10:12;1.65;;;0.70;;
70138;SDS011;57507;43.056;0.150;2022-09-12T06:12:38;3.70;;;0.80;;
70138;SDS011;57507;43.056;0.150;2022-09-12T06:15:04;8.25;;;0.70;;
70138;SDS011;57507;43.056;0.150;2022-09-12T06:17:31;3.25;;;1.02;;
70138;SDS011;57507;43.056;0.150;2022-09-12T06:19:57;2.85;;;0.80;;
70138;SDS011;57507;43.056;0.150;2022-09-12T06:22:24;2.72;;;0.95;;
70138;SDS011;57507;43.056;0.150;2022-09-12T06:24:50;9.02;;;1.27;;
70138;SDS011;57507;43.056;0.150;2022-09-12T06:27:16;3.10;;;0.88;;
70138;SDS011;57507;43.056;0.150;2022-09-12T06:29:42;5.63;;;0.82;;
70138;SDS011;57507;43.056;0.150;2022-09-12T06:32:08;9.00;;;0.85;;
70138;SDS011;57507;43.056;0.150;2022-09-12T06:34:34;3.60;;;0.82;;
70138;SDS011;57507;43.056;0.150;2022-09-12T06:37:00;6.43;;;1.23;;
70138;SDS011;57507;43.056;0.150;2022-09-12T06:39:28;1.35;;;0.77;;
70138;SDS011;57507;43.056;0.150;2022-09-12T06:41:55;2.30;;;1.05;;
70138;SDS011;57507;43.056;0.150;2022-09-12T06:44:21;3.28;;;0.68;;
70138;SDS011;57507;43.056;0.150;2022-09-12T06:46:48;4.10;;;0.57;;
70138;SDS011;57507;43.056;0.150;2022-09-12T06:49:14;3.78;;;0.57;;
70138;SDS011;57507;43.056;0.150;2022-09-12T06:51:41;2.85;;;0.60;;
70138;SDS011;57507;43.056;0.150;2022-09-12T06:54:07;4.65;;;0.70;;
70138;SDS011;57507;43.056;0.150;2022-09-12T06:56:34;4.80;;;0.98;;
70138;SDS011;57507;43.056;0.150;2022-09-12T06:59:01;2.88;;;0.80;;
70138;SDS011;57507;43.056;0.150;2022-09-12T07:01:28;2.08;;;0.65;;
70138;SDS011;57507;43.056;0.150;2022-09-12T07:03:55;8.15;;;1.00;;
70138;SDS011;57507;43.056;0.150;2022-09-12T07:06:27;5.72;;;0.90;;
70138;SDS011;57507;43.056;0.150;2022-09-12T07:08:57;4.05;;;0.65;;
70138;SDS011;57507;43.056;0.150;2022-09-12T07:11:24;4.80;;;1.17;;
70138;SDS011;57507;43.056;0.150;2022-09-12T07:13:52;2.08;;;0.65;;
70138;SDS011;57507;43.056;0.150;2022-09-12T07:16:18;1.85;;;0.60;;
70138;SDS011;57507;43.056;0.150;2022-09-12T07:18:44;4.82;;;1.23;;
70138;SDS011;57507;43.056;0.150;2022-09-12T07:21:11;3.97;;;0.57;;
70138;SDS011;57507;43.056;0.150;2022-09-12T07:23:37;4.25;;;0.75;;
70138;SDS011;57507;43.056;0.150;2022-09-12T07:26:04;6.63;;;1.08;;
70138;SDS011;57507;43.056;0.150;2022-09-12T07:28:32;3.38;;;0.75;;
70138;SDS011;57507;43.056;0.150;2022-09-12T07:31:05;4.18;;;0.80;;
70138;SDS011;57507;43.056;0.150;2022-09-12T07:33:32;5.15;;;0.80;;
70138;SDS011;57507;43.056;0.150;2022-09-12T07:36:05;3.60;;;0.75;;
70138;SDS011;57507;43.056;0.150;2022-09-12T07:38:32;5.57;;;1.10;;
70138;SDS011;57507;43.056;0.150;2022-09-12T07:40:59;5.95;;;1.00;;
70138;SDS011;57507;43.056;0.150;2022-09-12T07:43:25;2.15;;;0.88;;
70138;SDS011;57507;43.056;0.150;2022-09-12T07:45:55;4.45;;;1.00;;
70138;SDS011;57507;43.056;0.150;2022-09-12T07:48:21;4.63;;;0.80;;
70138;SDS011;57507;43.056;0.150;2022-09-12T07:50:48;4.75;;;1.02;;
70138;SDS011;57507;43.056;0.150;2022-09-12T07:53:21;5.90;;;1.40;;
70138;SDS011;57507;43.056;0.150;2022-09-12T07:55:54;7.13;;;1.10;;
70138;SDS011;57507;43.056;0.150;2022-09-12T07:58:20;6.77;;;1.40;;
70138;SDS011;57507;43.056;0.150;2022-09-12T08:00:46;5.32;;;1.30;;
70138;SDS011;57507;43.056;0.150;2022-09-12T08:03:12;5.70;;;1.65;;
70138;SDS011;57507;43.056;0.150;2022-09-12T08:05:41;7.47;;;2.08;;
70138;SDS011;57507;43.056;0.150;2022-09-12T08:08:07;11.38;;;2.20;;
70138;SDS011;57507;43.056;0.150;2022-09-12T08:10:34;6.63;;;1.50;;
70138;SDS011;57507;43.056;0.150;2022-09-12T08:13:00;5.97;;;1.45;;
70138;SDS011;57507;43.056;0.150;2022-09-12T08:15:27;3.20;;;1.33;;
70138;SDS011;57507;43.056;0.150;2022-09-12T08:17:55;9.38;;;1.65;;
70138;SDS011;57507;43.056;0.150;2022-09-12T08:20:21;5.32;;;1.67;;
70138;SDS011;57507;43.056;0.150;2022-09-12T08:22:47;7.70;;;1.30;;
70138;SDS011;57507;43.056;0.150;2022-09-12T08:25:13;9.57;;;1.67;;
70138;SDS011;57507;43.056;0.150;2022-09-12T08:27:39;4.18;;;1.30;;
70138;SDS011;57507;43.056;0.150;2022-09-12T08:30:07;3.80;;;1.20;;
70138;SDS011;57507;43.056;0.150;2022-09-12T08:32:33;8.48;;;1.52;;
70138;SDS011;57507;43.056;0.150;2022-09-12T08:35:00;9.93;;;2.25;;
70138;SDS011;57507;43.056;0.150;2022-09-12T08:37:28;9.57;;;1.70;;
70138;SDS011;57507;43.056;0.150;2022-09-12T08:39:55;8.48;;;1.60;;
70138;SDS011;57507;43.056;0.150;2022-09-12T08:42:45;7.65;;;1.15;;
70138;SDS011;57507;43.056;0.150;2022-09-12T08:45:08;5.68;;;1.10;;
70138;SDS011;57507;43.056;0.150;2022-09-12T08:47:40;5.53;;;1.23;;
70138;SDS011;57507;43.056;0.150;2022-09-12T08:55:00;4.88;;;1.42;;
70138;SDS011;57507;43.056;0.150;2022-09-12T08:57:27;6.53;;;1.42;;
70138;SDS011;57507;43.056;0.150;2022-09-12T08:59:53;7.10;;;1.63;;
70138;SDS011;57507;43.056;0.150;2022-09-12T09:04:56;5.70;;;1.00;;
70138;SDS011;57507;43.056;0.150;2022-09-12T09:17:44;4.95;;;1.00;;
70138;SDS011;57507;43.056;0.150;2022-09-12T09:25:16;5.20;;;1.05;;
70138;SDS011;57507;43.056;0.150;2022-09-12T09:27:49;6.07;;;1.10;;
70138;SDS011;57507;43.056;0.150;2022-09-12T09:30:18;6.05;;;1.25;;
70138;SDS011;57507;43.056;0.150;2022-09-12T09:32:53;4.40;;;1.38;;
70138;SDS011;57507;43.056;0.150;2022-09-12T09:35:21;3.60;;;0.80;;
70138;SDS011;57507;43.056;0.150;2022-09-12T09:38:00;7.10;;;1.17;;
70138;SDS011;57507;43.056;0.150;2022-09-12T09:40:36;6.75;;;0.90;;
70138;SDS011;57507;43.056;0.150;2022-09-12T09:43:09;6.40;;;1.40;;
70138;SDS011;57507;43.056;0.150;2022-09-12T09:45:37;2.78;;;0.70;;
70138;SDS011;57507;43.056;0.150;2022-09-12T09:50:46;8.50;;;1.00;;
70138;SDS011;57507;43.056;0.150;2022-09-12T09:55:51;4.13;;;0.95;;
70138;SDS011;57507;43.056;0.150;2022-09-12T09:58:31;3.13;;;0.70;;
70138;SDS011;57507;43.056;0.150;2022-09-12T10:01:02;4.35;;;0.85;;
70138;SDS011;57507;43.056;0.150;2022-09-12T10:03:37;4.72;;;1.13;;
70138;SDS011;57507;43.056;0.150;2022-09-12T10:06:20;3.10;;;0.40;;
70138;SDS011;57507;43.056;0.150;2022-09-12T10:11:20;2.05;;;0.45;;
70138;SDS011;57507;43.056;0.150;2022-09-12T10:16:29;2.55;;;0.50;;
70138;SDS011;57507;43.056;0.150;2022-09-12T10:18:56;3.78;;;0.60;;
70138;SDS011;57507;43.056;0.150;2022-09-12T10:26:39;5.50;;;0.50;;
70138;SDS011;57507;43.056;0.150;2022-09-12T10:29:09;1.80;;;0.50;;
70138;SDS011;57507;43.056;0.150;2022-09-12T10:32:10;3.65;;;0.70;;
70138;SDS011;57507;43.056;0.150;2022-09-12T10:34:41;4.32;;;0.82;;
70138;SDS011;57507;43.056;0.150;2022-09-12T10:37:09;4.25;;;0.65;;
70138;SDS011;57507;43.056;0.150;2022-09-12T10:39:36;3.92;;;0.65;;
70138;SDS011;57507;43.056;0.150;2022-09-12T10:42:03;2.28;;;0.38;;
70138;SDS011;57507;43.056;0.150;2022-09-12T10:44:30;5.63;;;0.70;;
70138;SDS011;57507;43.056;0.150;2022-09-12T10:46:57;5.90;;;0.68;;
70138;SDS011;57507;43.056;0.150;2022-09-12T10:49:28;1.80;;;0.68;;
70138;SDS011;57507;43.056;0.150;2022-09-12T10:51:55;2.58;;;0.50;;
70138;SDS011;57507;43.056;0.150;2022-09-12T10:54:24;1.88;;;0.60;;
70138;SDS011;57507;43.056;0.150;2022-09-12T10:59:37;1.77;;;0.52;;
70138;SDS011;57507;43.056;0.150;2022-09-12T11:02:23;4.43;;;0.80;;
70138;SDS011;57507;43.056;0.150;2022-09-12T11:05:06;2.85;;;0.57;;
70138;SDS011;57507;43.056;0.150;2022-09-12T11:10:16;5.78;;;0.68;;
70138;SDS011;57507;43.056;0.150;2022-09-12T11:25:34;3.92;;;0.77;;
70138;SDS011;57507;43.056;0.150;2022-09-12T11:30:39;5.32;;;0.80;;
70138;SDS011;57507;43.056;0.150;2022-09-12T11:35:49;3.35;;;0.80;;
70138;SDS011;57507;43.056;0.150;2022-09-12T11:41:15;7.30;;;0.82;;
70138;SDS011;57507;43.056;0.150;2022-09-12T11:43:54;3.83;;;1.70;;
70138;SDS011;57507;43.056;0.150;2022-09-12T11:51:16;3.72;;;0.60;;
70138;SDS011;57507;43.056;0.150;2022-09-12T11:53:43;2.97;;;0.60;;
70138;SDS011;57507;43.056;0.150;2022-09-12T11:56:14;3.03;;;0.80;;
70138;SDS011;57507;43.056;0.150;2022-09-12T11:58:42;3.20;;;0.67;;
70138;SDS011;57507;43.056;0.150;2022-09-12T12:01:14;4.18;;;1.15;;
70138;SDS011;57507;43.056;0.150;2022-09-12T12:03:43;5.20;;;0.70;;
70138;SDS011;57507;43.056;0.150;2022-09-12T12:06:16;3.85;;;1.00;;
70138;SDS011;57507;43.056;0.150;2022-09-12T12:08:43;3.25;;;0.75;;
70138;SDS011;57507;43.056;0.150;2022-09-12T12:11:11;3.67;;;0.90;;
70138;SDS011;57507;43.056;0.150;2022-09-12T12:18:41;4.63;;;1.00;;
70138;SDS011;57507;43.056;0.150;2022-09-12T12:24:00;4.72;;;0.80;;
70138;SDS011;57507;43.056;0.150;2022-09-12T12:29:09;5.05;;;0.82;;
70138;SDS011;57507;43.056;0.150;2022-09-12T12:34:29;3.35;;;0.80;;
70138;SDS011;57507;43.056;0.150;2022-09-12T12:36:56;5.25;;;1.02;;
70138;SDS011;57507;43.056;0.150;2022-09-12T12:42:01;2.28;;;0.63;;
70138;SDS011;57507;43.056;0.150;2022-09-12T12:52:14;2.55;;;0.60;;
70138;SDS011;57507;43.056;0.150;2022-09-12T13:02:25;4.95;;;1.00;;
70138;SDS011;57507;43.056;0.150;2022-09-12T13:04:54;3.83;;;0.85;;
70138;SDS011;57507;43.056;0.150;2022-09-12T13:07:23;3.80;;;0.95;;
70138;SDS011;57507;43.056;0.150;2022-09-12T13:09:50;2.78;;;1.00;;
70138;SDS011;57507;43.056;0.150;2022-09-12T13:12:18;3.70;;;1.10;;
70138;SDS011;57507;43.056;0.150;2022-09-12T13:22:46;4.60;;;0.88;;
70138;SDS011;57507;43.056;0.150;2022-09-12T13:30:22;4.38;;;0.88;;
70138;SDS011;57507;43.056;0.150;2022-09-12T13:32:48;3.83;;;0.63;;
70138;SDS011;57507;43.056;0.150;2022-09-12T13:37:52;5.15;;;1.02;;
70138;SDS011;57507;43.056;0.150;2022-09-12T13:42:52;5.05;;;1.02;;
70138;SDS011;57507;43.056;0.150;2022-09-12T13:45:31;2.60;;;0.82;;
70138;SDS011;57507;43.056;0.150;2022-09-12T13:48:00;4.53;;;1.27;;
70138;SDS011;57507;43.056;0.150;2022-09-12T13:50:31;4.82;;;0.90;;
70138;SDS011;57507;43.056;0.150;2022-09-12T13:52:59;3.47;;;0.90;;
70138;SDS011;57507;43.056;0.150;2022-09-12T13:57:59;3.55;;;0.73;;
70138;SDS011;57507;43.056;0.150;2022-09-12T14:00:26;4.65;;;0.73;;
70138;SDS011;57507;43.056;0.150;2022-09-12T14:02:52;3.17;;;1.10;;
70138;SDS011;57507;43.056;0.150;2022-09-12T14:05:38;7.13;;;0.82;;
70138;SDS011;57507;43.056;0.150;2022-09-12T14:08:08;3.50;;;0.85;;
70138;SDS011;57507;43.056;0.150;2022-09-12T14:10:38;3.25;;;0.75;;
70138;SDS011;57507;43.056;0.150;2022-09-12T14:13:09;1.73;;;0.63;;
70138;SDS011;57507;43.056;0.150;2022-09-12T14:15:36;3.00;;;0.60;;
70138;SDS011;57507;43.056;0.150;2022-09-12T14:18:03;4.10;;;0.77;;
70138;SDS011;57507;43.056;0.150;2022-09-12T14:20:31;4.85;;;0.80;;
70138;SDS011;57507;43.056;0.150;2022-09-12T14:23:43;4.85;;;1.00;;
70138;SDS011;57507;43.056;0.150;2022-09-12T14:25:51;4.95;;;0.90;;
70138;SDS011;57507;43.056;0.150;2022-09-12T14:28:18;4.93;;;1.05;;
70138;SDS011;57507;43.056;0.150;2022-09-12T14:31:01;4.15;;;0.80;;
70138;SDS011;57507;43.056;0.150;2022-09-12T14:33:30;4.97;;;1.02;;
70138;SDS011;57507;43.056;0.150;2022-09-12T14:36:10;4.10;;;0.80;;
70138;SDS011;57507;43.056;0.150;2022-09-12T14:38:40;3.67;;;0.90;;
70138;SDS011;57507;43.056;0.150;2022-09-12T14:41:08;2.70;;;0.60;;
70138;SDS011;57507;43.056;0.150;2022-09-12T14:43:43;2.53;;;0.93;;
70138;SDS011;57507;43.056;0.150;2022-09-12T14:46:15;5.28;;;0.90;;
70138;SDS011;57507;43.056;0.150;2022-09-12T14:49:01;4.22;;;1.00;;
70138;SDS011;57507;43.056;0.150;2022-09-12T14:51:31;5.07;;;1.08;;
70138;SDS011;57507;43.056;0.150;2022-09-12T14:53:58;5.00;;;0.95;;
70138;SDS011;57507;43.056;0.150;2022-09-12T14:59:25;5.53;;;1.00;;
70138;SDS011;57507;43.056;0.150;2022-09-12T15:04:36;3.75;;;0.88;;
70138;SDS011;57507;43.056;0.150;2022-09-12T15:07:12;7.07;;;1.02;;
70138;SDS011;57507;43.056;0.150;2022-09-12T15:09:38;3.25;;;0.90;;
70138;SDS011;57507;43.056;0.150;2022-09-12T15:12:04;2.72;;;0.82;;
70138;SDS011;57507;43.056;0.150;2022-09-12T15:14:30;4.90;;;0.80;;
70138;SDS011;57507;43.056;0.150;2022-09-12T15:16:56;4.75;;;0.80;;
70138;SDS011;57507;43.056;0.150;2022-09-12T15:19:23;6.88;;;0.70;;
70138;SDS011;57507;43.056;0.150;2022-09-12T15:21:49;4.53;;;1.00;;
70138;SDS011;57507;43.056;0.150;2022-09-12T15:24:15;4.63;;;0.80;;
70138;SDS011;57507;43.056;0.150;2022-09-12T15:26:41;3.55;;;0.90;;
70138;SDS011;57507;43.056;0.150;2022-09-12T15:29:07;3.78;;;0.93;;
70138;SDS011;57507;43.056;0.150;2022-09-12T15:31:33;4.80;;;1.10;;
70138;SDS011;57507;43.056;0.150;2022-09-12T15:33:59;6.07;;;1.02;;
70138;SDS011;57507;43.056;0.150;2022-09-12T15:36:26;5.82;;;0.80;;
70138;SDS011;57507;43.056;0.150;2022-09-12T15:38:55;5.28;;;1.00;;
70138;SDS011;57507;43.056;0.150;2022-09-12T15:41:31;3.78;;;1.27;;
70138;SDS011;57507;43.056;0.150;2022-09-12T15:43:58;3.22;;;0.93;;
70138;SDS011;57507;43.056;0.150;2022-09-12T15:46:25;4.30;;;0.88;;
70138;SDS011;57507;43.056;0.150;2022-09-12T15:48:51;3.03;;;0.70;;
70138;SDS011;57507;43.056;0.150;2022-09-12T15:51:18;4.40;;;0.98;;
70138;SDS011;57507;43.056;0.150;2022-09-12T15:53:45;5.53;;;0.88;;
70138;SDS011;57507;43.056;0.150;2022-09-12T15:56:12;3.63;;;0.75;;
70138;SDS011;57507;43.056;0.150;2022-09-12T15:58:38;5.07;;;1.00;;
70138;SDS011;57507;43.056;0.150;2022-09-12T16:01:05;4.90;;;0.93;;
70138;SDS011;57507;43.056;0.150;2022-09-12T16:03:31;4.82;;;1.13;;
70138;SDS011;57507;43.056;0.150;2022-09-12T16:05:58;4.85;;;0.80;;
70138;SDS011;57507;43.056;0.150;2022-09-12T16:08:25;4.20;;;0.82;;
70138;SDS011;57507;43.056;0.150;2022-09-12T16:10:55;7.55;;;0.93;;
70138;SDS011;57507;43.056;0.150;2022-09-12T16:13:22;3.92;;;0.70;;
70138;SDS011;57507;43.056;0.150;2022-09-12T16:15:48;2.72;;;0.85;;
70138;SDS011;57507;43.056;0.150;2022-09-12T16:18:14;4.65;;;1.10;;
70138;SDS011;57507;43.056;0.150;2022-09-12T16:20:40;6.22;;;1.15;;
70138;SDS011;57507;43.056;0.150;2022-09-12T16:23:06;2.15;;;0.85;;
70138;SDS011;57507;43.056;0.150;2022-09-12T16:25:32;3.92;;;0.85;;
70138;SDS011;57507;43.056;0.150;2022-09-12T16:27:58;7.28;;;1.08;;
70138;SDS011;57507;43.056;0.150;2022-09-12T16:30:25;6.15;;;1.30;;
70138;SDS011;57507;43.056;0.150;2022-09-12T16:32:51;9.00;;;1.00;;
70138;SDS011;57507;43.056;0.150;2022-09-12T16:35:17;3.22;;;0.60;;
70138;SDS011;57507;43.056;0.150;2022-09-12T16:37:43;4.43;;;0.90;;
70138;SDS011;57507;43.056;0.150;2022-09-12T16:40:09;6.15;;;1.33;;
70138;SDS011;57507;43.056;0.150;2022-09-12T16:42:36;3.35;;;1.40;;
70138;SDS011;57507;43.056;0.150;2022-09-12T16:45:03;3.13;;;0.80;;
70138;SDS011;57507;43.056;0.150;2022-09-12T16:47:29;5.28;;;1.20;;
70138;SDS011;57507;43.056;0.150;2022-09-12T16:49:56;2.80;;;0.85;;
70138;SDS011;57507;43.056;0.150;2022-09-12T16:52:23;4.63;;;0.75;;
70138;SDS011;57507;43.056;0.150;2022-09-12T16:54:49;2.83;;;0.85;;
70138;SDS011;57507;43.056;0.150;2022-09-12T16:57:15;4.60;;;0.73;;
70138;SDS011;57507;43.056;0.150;2022-09-12T16:59:41;6.15;;;1.08;;
70138;SDS011;57507;43.056;0.150;2022-09-12T17:02:11;5.78;;;0.90;;
70138;SDS011;57507;43.056;0.150;2022-09-12T17:04:38;4.15;;;1.02;;
70138;SDS011;57507;43.056;0.150;2022-09-12T17:07:04;3.00;;;0.65;;
70138;SDS011;57507;43.056;0.150;2022-09-12T17:09:30;4.55;;;1.20;;
70138;SDS011;57507;43.056;0.150;2022-09-12T17:11:56;8.15;;;2.00;;
70138;SDS011;57507;43.056;0.150;2022-09-12T17:14:23;4.93;;;1.15;;
70138;SDS011;57507;43.056;0.150;2022-09-12T17:16:49;3.72;;;0.90;;
70138;SDS011;57507;43.056;0.150;2022-09-12T17:19:25;3.65;;;1.20;;
70138;SDS011;57507;43.056;0.150;2022-09-12T17:21:55;5.30;;;1.30;;
70138;SDS011;57507;43.056;0.150;2022-09-12T17:24:21;8.02;;;1.10;;
70138;SDS011;57507;43.056;0.150;2022-09-12T17:26:48;5.35;;;1.30;;
70138;SDS011;57507;43.056;0.150;2022-09-12T17:29:14;4.15;;;1.00;;
70138;SDS011;57507;43.056;0.150;2022-09-12T17:31:41;3.17;;;1.00;;
70138;SDS011;57507;43.056;0.150;2022-09-12T17:34:07;7.07;;;1.70;;
70138;SDS011;57507;43.056;0.150;2022-09-12T17:36:33;6.00;;;1.75;;
70138;SDS011;57507;43.056;0.150;2022-09-12T17:39:02;3.22;;;1.13;;
70138;SDS011;57507;43.056;0.150;2022-09-12T17:41:29;3.22;;;1.23;;
70138;SDS011;57507;43.056;0.150;2022-09-12T17:43:58;5.43;;;1.20;;
70138;SDS011;57507;43.056;0.150;2022-09-12T17:46:35;4.57;;;1.20;;
70138;SDS011;57507;43.056;0.150;2022-09-12T17:49:02;4.53;;;1.00;;
70138;SDS011;57507;43.056;0.150;2022-09-12T17:51:29;4.85;;;1.10;;